Terminal Aerodrome Forecast
Issued by NWS Sterling, VA

Current Version | Previous Version | Text Only | Print | Product List | Glossary Off
Versions: 1 2 3 4 5 6 7 8 9 10 11 12 13 14 15 16 17 18 19 20 21 22 23

000
FTUS41 KLWX 172100 AAA
TAFIAD
TAF AMD
KIAD 172102Z 1721/1824 29010G19KT P6SM SCT040
     FM172300 29006KT P6SM SCT040
     FM180100 00000KT P6SM BKN250=

USA.gov is the U.S. government's official web portal to all federal, state and local government web resources and services.